sensor_id;sensor_type;location;lat;lon;timestamp;P1;durP1;ratioP1;P2;durP2;ratioP2
4674;SDS011;2351;50.812;12.872;2023-03-03T00:02:32;38.73;;;14.63;;
4674;SDS011;2351;50.812;12.872;2023-03-03T00:05:05;35.50;;;14.60;;
4674;SDS011;2351;50.812;12.872;2023-03-03T00:07:38;31.80;;;13.77;;
4674;SDS011;2351;50.812;12.872;2023-03-03T00:10:10;28.53;;;13.67;;
4674;SDS011;2351;50.812;12.872;2023-03-03T00:12:45;46.63;;;15.77;;
4674;SDS011;2351;50.812;12.872;2023-03-03T00:15:18;36.97;;;14.47;;
4674;SDS011;2351;50.812;12.872;2023-03-03T00:17:51;34.43;;;15.37;;
4674;SDS011;2351;50.812;12.872;2023-03-03T00:20:30;32.10;;;14.53;;
4674;SDS011;2351;50.812;12.872;2023-03-03T00:23:19;42.60;;;15.10;;
4674;SDS011;2351;50.812;12.872;2023-03-03T00:25:54;38.77;;;14.97;;
4674;SDS011;2351;50.812;12.872;2023-03-03T00:28:27;38.10;;;16.87;;
4674;SDS011;2351;50.812;12.872;2023-03-03T00:31:00;42.43;;;18.40;;
4674;SDS011;2351;50.812;12.872;2023-03-03T00:33:44;51.13;;;17.57;;
4674;SDS011;2351;50.812;12.872;2023-03-03T00:36:26;54.80;;;18.20;;
4674;SDS011;2351;50.812;12.872;2023-03-03T00:39:10;51.87;;;18.03;;
4674;SDS011;2351;50.812;12.872;2023-03-03T00:41:48;57.97;;;17.67;;
4674;SDS011;2351;50.812;12.872;2023-03-03T00:44:37;48.53;;;17.70;;
4674;SDS011;2351;50.812;12.872;2023-03-03T00:47:24;54.27;;;18.87;;
4674;SDS011;2351;50.812;12.872;2023-03-03T00:53:05;53.50;;;18.33;;
4674;SDS011;2351;50.812;12.872;2023-03-03T00:55:41;36.83;;;14.90;;
4674;SDS011;2351;50.812;12.872;2023-03-03T00:58:13;55.17;;;18.60;;
4674;SDS011;2351;50.812;12.872;2023-03-03T01:00:45;98.90;;;18.37;;
4674;SDS011;2351;50.812;12.872;2023-03-03T01:03:17;66.00;;;17.87;;
4674;SDS011;2351;50.812;12.872;2023-03-03T01:05:51;76.17;;;19.17;;
4674;SDS011;2351;50.812;12.872;2023-03-03T01:08:25;43.80;;;17.30;;
4674;SDS011;2351;50.812;12.872;2023-03-03T01:10:57;58.10;;;19.00;;
4674;SDS011;2351;50.812;12.872;2023-03-03T01:13:34;72.03;;;20.67;;
4674;SDS011;2351;50.812;12.872;2023-03-03T01:16:07;86.70;;;20.20;;
4674;SDS011;2351;50.812;12.872;2023-03-03T01:18:39;47.33;;;19.20;;
4674;SDS011;2351;50.812;12.872;2023-03-03T01:21:11;45.67;;;17.83;;
4674;SDS011;2351;50.812;12.872;2023-03-03T01:23:45;47.77;;;20.07;;
4674;SDS011;2351;50.812;12.872;2023-03-03T01:26:16;67.30;;;19.20;;
4674;SDS011;2351;50.812;12.872;2023-03-03T01:28:48;61.03;;;17.97;;
4674;SDS011;2351;50.812;12.872;2023-03-03T01:31:20;51.53;;;16.63;;
4674;SDS011;2351;50.812;12.872;2023-03-03T01:33:51;81.97;;;20.80;;
4674;SDS011;2351;50.812;12.872;2023-03-03T01:36:23;51.53;;;17.37;;
4674;SDS011;2351;50.812;12.872;2023-03-03T01:38:57;68.27;;;17.37;;
4674;SDS011;2351;50.812;12.872;2023-03-03T01:41:28;57.30;;;19.60;;
4674;SDS011;2351;50.812;12.872;2023-03-03T01:44:02;81.43;;;19.17;;
4674;SDS011;2351;50.812;12.872;2023-03-03T01:46:40;76.27;;;19.87;;
4674;SDS011;2351;50.812;12.872;2023-03-03T01:49:22;69.60;;;18.33;;
4674;SDS011;2351;50.812;12.872;2023-03-03T01:51:57;40.90;;;17.10;;
4674;SDS011;2351;50.812;12.872;2023-03-03T01:54:34;61.67;;;17.80;;
4674;SDS011;2351;50.812;12.872;2023-03-03T01:57:10;87.50;;;17.63;;
4674;SDS011;2351;50.812;12.872;2023-03-03T01:59:47;62.07;;;18.33;;
4674;SDS011;2351;50.812;12.872;2023-03-03T02:02:21;58.90;;;17.90;;
4674;SDS011;2351;50.812;12.872;2023-03-03T02:04:54;77.13;;;17.17;;
4674;SDS011;2351;50.812;12.872;2023-03-03T02:07:26;56.00;;;16.60;;
4674;SDS011;2351;50.812;12.872;2023-03-03T02:10:03;94.80;;;18.53;;
4674;SDS011;2351;50.812;12.872;2023-03-03T02:12:37;45.90;;;16.60;;
4674;SDS011;2351;50.812;12.872;2023-03-03T02:15:16;62.83;;;18.07;;
4674;SDS011;2351;50.812;12.872;2023-03-03T02:17:49;71.03;;;19.73;;
4674;SDS011;2351;50.812;12.872;2023-03-03T02:20:28;59.93;;;17.57;;
4674;SDS011;2351;50.812;12.872;2023-03-03T02:23:09;51.40;;;17.33;;
4674;SDS011;2351;50.812;12.872;2023-03-03T02:25:51;43.10;;;13.77;;
4674;SDS011;2351;50.812;12.872;2023-03-03T02:28:40;63.33;;;13.73;;
4674;SDS011;2351;50.812;12.872;2023-03-03T02:31:13;40.90;;;14.20;;
4674;SDS011;2351;50.812;12.872;2023-03-03T02:33:47;37.77;;;14.33;;
4674;SDS011;2351;50.812;12.872;2023-03-03T02:36:21;52.73;;;15.30;;
4674;SDS011;2351;50.812;12.872;2023-03-03T02:38:56;72.57;;;15.03;;
4674;SDS011;2351;50.812;12.872;2023-03-03T02:41:34;38.27;;;14.13;;
4674;SDS011;2351;50.812;12.872;2023-03-03T02:44:10;73.53;;;15.20;;
4674;SDS011;2351;50.812;12.872;2023-03-03T02:46:43;37.30;;;14.70;;
4674;SDS011;2351;50.812;12.872;2023-03-03T02:49:17;41.80;;;16.60;;
4674;SDS011;2351;50.812;12.872;2023-03-03T02:51:51;33.30;;;13.57;;
4674;SDS011;2351;50.812;12.872;2023-03-03T02:54:23;38.27;;;12.73;;
4674;SDS011;2351;50.812;12.872;2023-03-03T02:56:56;52.97;;;16.17;;
4674;SDS011;2351;50.812;12.872;2023-03-03T02:59:29;37.10;;;14.17;;
4674;SDS011;2351;50.812;12.872;2023-03-03T03:02:01;42.40;;;15.37;;
4674;SDS011;2351;50.812;12.872;2023-03-03T03:04:33;46.63;;;14.93;;
4674;SDS011;2351;50.812;12.872;2023-03-03T03:07:04;44.00;;;15.90;;
4674;SDS011;2351;50.812;12.872;2023-03-03T03:09:36;33.07;;;15.90;;
4674;SDS011;2351;50.812;12.872;2023-03-03T03:12:08;35.83;;;15.03;;
4674;SDS011;2351;50.812;12.872;2023-03-03T03:14:41;38.30;;;13.90;;
4674;SDS011;2351;50.812;12.872;2023-03-03T03:17:13;85.77;;;17.90;;
4674;SDS011;2351;50.812;12.872;2023-03-03T03:19:45;47.87;;;16.30;;
4674;SDS011;2351;50.812;12.872;2023-03-03T03:22:16;45.60;;;15.00;;
4674;SDS011;2351;50.812;12.872;2023-03-03T03:24:48;35.53;;;14.67;;
4674;SDS011;2351;50.812;12.872;2023-03-03T03:27:20;52.57;;;14.77;;
4674;SDS011;2351;50.812;12.872;2023-03-03T03:29:53;40.43;;;15.37;;
4674;SDS011;2351;50.812;12.872;2023-03-03T03:32:25;36.43;;;15.00;;
4674;SDS011;2351;50.812;12.872;2023-03-03T03:34:57;35.23;;;13.10;;
4674;SDS011;2351;50.812;12.872;2023-03-03T03:37:29;34.00;;;13.83;;
4674;SDS011;2351;50.812;12.872;2023-03-03T03:40:00;49.43;;;15.27;;
4674;SDS011;2351;50.812;12.872;2023-03-03T03:42:32;51.17;;;15.70;;
4674;SDS011;2351;50.812;12.872;2023-03-03T03:45:06;36.10;;;14.03;;
4674;SDS011;2351;50.812;12.872;2023-03-03T03:47:38;37.10;;;15.30;;
4674;SDS011;2351;50.812;12.872;2023-03-03T03:50:10;35.63;;;14.80;;
4674;SDS011;2351;50.812;12.872;2023-03-03T03:52:42;45.40;;;15.43;;
4674;SDS011;2351;50.812;12.872;2023-03-03T03:55:14;32.73;;;12.70;;
4674;SDS011;2351;50.812;12.872;2023-03-03T03:57:45;38.83;;;14.10;;
4674;SDS011;2351;50.812;12.872;2023-03-03T04:00:19;40.00;;;13.23;;
4674;SDS011;2351;50.812;12.872;2023-03-03T04:02:51;35.77;;;14.50;;
4674;SDS011;2351;50.812;12.872;2023-03-03T04:05:22;33.80;;;13.80;;
4674;SDS011;2351;50.812;12.872;2023-03-03T04:07:54;37.60;;;14.10;;
4674;SDS011;2351;50.812;12.872;2023-03-03T04:10:26;43.63;;;15.70;;
4674;SDS011;2351;50.812;12.872;2023-03-03T04:12:57;40.20;;;15.37;;
4674;SDS011;2351;50.812;12.872;2023-03-03T04:15:30;39.30;;;14.50;;
4674;SDS011;2351;50.812;12.872;2023-03-03T04:18:02;35.53;;;13.67;;
4674;SDS011;2351;50.812;12.872;2023-03-03T04:20:34;33.23;;;13.43;;
4674;SDS011;2351;50.812;12.872;2023-03-03T04:23:06;39.47;;;12.87;;
4674;SDS011;2351;50.812;12.872;2023-03-03T04:25:38;42.67;;;15.23;;
4674;SDS011;2351;50.812;12.872;2023-03-03T04:28:09;36.67;;;13.37;;
4674;SDS011;2351;50.812;12.872;2023-03-03T04:30:43;36.80;;;15.10;;
4674;SDS011;2351;50.812;12.872;2023-03-03T04:33:14;39.97;;;12.87;;
4674;SDS011;2351;50.812;12.872;2023-03-03T04:35:46;38.00;;;13.33;;
4674;SDS011;2351;50.812;12.872;2023-03-03T04:38:18;41.07;;;13.77;;
4674;SDS011;2351;50.812;12.872;2023-03-03T04:40:49;30.97;;;12.70;;
4674;SDS011;2351;50.812;12.872;2023-03-03T04:43:21;36.97;;;13.47;;
4674;SDS011;2351;50.812;12.872;2023-03-03T04:45:54;35.87;;;13.80;;
4674;SDS011;2351;50.812;12.872;2023-03-03T04:48:26;36.00;;;12.70;;
4674;SDS011;2351;50.812;12.872;2023-03-03T04:50:58;59.60;;;16.20;;
4674;SDS011;2351;50.812;12.872;2023-03-03T04:53:29;34.53;;;13.00;;
4674;SDS011;2351;50.812;12.872;2023-03-03T04:56:01;38.40;;;13.70;;
4674;SDS011;2351;50.812;12.872;2023-03-03T04:58:33;29.83;;;11.53;;
4674;SDS011;2351;50.812;12.872;2023-03-03T05:01:06;39.93;;;14.90;;
4674;SDS011;2351;50.812;12.872;2023-03-03T05:03:38;32.03;;;14.27;;
4674;SDS011;2351;50.812;12.872;2023-03-03T05:06:10;28.73;;;12.17;;
4674;SDS011;2351;50.812;12.872;2023-03-03T05:08:42;32.40;;;12.13;;
4674;SDS011;2351;50.812;12.872;2023-03-03T05:11:14;38.40;;;13.90;;
4674;SDS011;2351;50.812;12.872;2023-03-03T05:13:46;40.10;;;14.87;;
4674;SDS011;2351;50.812;12.872;2023-03-03T05:16:19;34.93;;;12.83;;
4674;SDS011;2351;50.812;12.872;2023-03-03T05:18:50;40.50;;;13.10;;
4674;SDS011;2351;50.812;12.872;2023-03-03T05:21:22;52.70;;;14.70;;
4674;SDS011;2351;50.812;12.872;2023-03-03T05:23:54;80.47;;;15.70;;
4674;SDS011;2351;50.812;12.872;2023-03-03T05:26:25;37.40;;;14.50;;
4674;SDS011;2351;50.812;12.872;2023-03-03T05:28:57;40.33;;;14.70;;
4674;SDS011;2351;50.812;12.872;2023-03-03T05:31:30;49.83;;;14.80;;
4674;SDS011;2351;50.812;12.872;2023-03-03T05:34:02;46.30;;;13.90;;
4674;SDS011;2351;50.812;12.872;2023-03-03T05:36:34;54.23;;;16.20;;
4674;SDS011;2351;50.812;12.872;2023-03-03T05:39:05;42.60;;;14.00;;
4674;SDS011;2351;50.812;12.872;2023-03-03T05:41:37;37.03;;;12.73;;
4674;SDS011;2351;50.812;12.872;2023-03-03T05:44:09;50.37;;;15.90;;
4674;SDS011;2351;50.812;12.872;2023-03-03T05:46:43;45.93;;;13.83;;
4674;SDS011;2351;50.812;12.872;2023-03-03T05:49:15;35.13;;;14.80;;
4674;SDS011;2351;50.812;12.872;2023-03-03T05:51:46;36.43;;;14.50;;
4674;SDS011;2351;50.812;12.872;2023-03-03T05:54:18;42.10;;;15.77;;
4674;SDS011;2351;50.812;12.872;2023-03-03T05:56:50;32.73;;;14.20;;
4674;SDS011;2351;50.812;12.872;2023-03-03T05:59:22;43.23;;;14.23;;
4674;SDS011;2351;50.812;12.872;2023-03-03T06:01:55;37.03;;;14.37;;
4674;SDS011;2351;50.812;12.872;2023-03-03T06:04:27;39.37;;;12.70;;
4674;SDS011;2351;50.812;12.872;2023-03-03T06:06:58;53.77;;;15.47;;
4674;SDS011;2351;50.812;12.872;2023-03-03T06:09:30;42.97;;;14.10;;
4674;SDS011;2351;50.812;12.872;2023-03-03T06:12:02;39.20;;;12.87;;
4674;SDS011;2351;50.812;12.872;2023-03-03T06:14:34;43.97;;;14.93;;
4674;SDS011;2351;50.812;12.872;2023-03-03T06:17:08;38.30;;;13.40;;
4674;SDS011;2351;50.812;12.872;2023-03-03T06:19:40;35.83;;;12.80;;
4674;SDS011;2351;50.812;12.872;2023-03-03T06:22:11;34.20;;;14.53;;
4674;SDS011;2351;50.812;12.872;2023-03-03T06:24:43;53.77;;;13.50;;
4674;SDS011;2351;50.812;12.872;2023-03-03T06:27:15;36.10;;;14.43;;
4674;SDS011;2351;50.812;12.872;2023-03-03T06:29:47;35.17;;;12.90;;
4674;SDS011;2351;50.812;12.872;2023-03-03T06:32:20;37.63;;;12.43;;
4674;SDS011;2351;50.812;12.872;2023-03-03T06:34:52;37.93;;;14.23;;
4674;SDS011;2351;50.812;12.872;2023-03-03T06:37:23;40.90;;;15.43;;
4674;SDS011;2351;50.812;12.872;2023-03-03T06:39:55;39.33;;;14.47;;
4674;SDS011;2351;50.812;12.872;2023-03-03T06:42:27;39.30;;;13.00;;
4674;SDS011;2351;50.812;12.872;2023-03-03T06:44:59;37.20;;;14.60;;
4674;SDS011;2351;50.812;12.872;2023-03-03T06:47:32;42.27;;;13.50;;
4674;SDS011;2351;50.812;12.872;2023-03-03T06:50:04;37.47;;;13.87;;
4674;SDS011;2351;50.812;12.872;2023-03-03T06:52:36;58.70;;;15.03;;
4674;SDS011;2351;50.812;12.872;2023-03-03T06:55:09;35.37;;;15.23;;
4674;SDS011;2351;50.812;12.872;2023-03-03T06:57:43;44.13;;;16.73;;
4674;SDS011;2351;50.812;12.872;2023-03-03T07:00:16;33.87;;;14.03;;
4674;SDS011;2351;50.812;12.872;2023-03-03T07:02:52;33.53;;;14.70;;
4674;SDS011;2351;50.812;12.872;2023-03-03T07:05:28;33.37;;;14.00;;
4674;SDS011;2351;50.812;12.872;2023-03-03T07:08:00;41.43;;;16.00;;
4674;SDS011;2351;50.812;12.872;2023-03-03T07:10:31;41.23;;;15.37;;
4674;SDS011;2351;50.812;12.872;2023-03-03T07:13:07;33.20;;;14.10;;
4674;SDS011;2351;50.812;12.872;2023-03-03T07:15:48;42.87;;;15.90;;
4674;SDS011;2351;50.812;12.872;2023-03-03T07:18:32;47.03;;;16.07;;
4674;SDS011;2351;50.812;12.872;2023-03-03T07:21:12;39.57;;;15.20;;
4674;SDS011;2351;50.812;12.872;2023-03-03T07:23:47;43.33;;;13.60;;
4674;SDS011;2351;50.812;12.872;2023-03-03T07:26:20;40.30;;;14.73;;
4674;SDS011;2351;50.812;12.872;2023-03-03T07:28:59;42.80;;;15.97;;
4674;SDS011;2351;50.812;12.872;2023-03-03T07:31:33;41.00;;;13.90;;
4674;SDS011;2351;50.812;12.872;2023-03-03T07:34:15;46.73;;;14.80;;
4674;SDS011;2351;50.812;12.872;2023-03-03T07:36:53;46.40;;;16.53;;
4674;SDS011;2351;50.812;12.872;2023-03-03T07:39:30;35.60;;;14.13;;
4674;SDS011;2351;50.812;12.872;2023-03-03T07:42:17;34.87;;;14.27;;
4674;SDS011;2351;50.812;12.872;2023-03-03T07:44:52;38.47;;;15.77;;
4674;SDS011;2351;50.812;12.872;2023-03-03T07:47:26;38.73;;;15.30;;
4674;SDS011;2351;50.812;12.872;2023-03-03T07:50:01;36.10;;;13.67;;
4674;SDS011;2351;50.812;12.872;2023-03-03T07:52:45;47.57;;;15.07;;
4674;SDS011;2351;50.812;12.872;2023-03-03T07:55:29;43.60;;;15.60;;
4674;SDS011;2351;50.812;12.872;2023-03-03T07:58:15;40.30;;;14.50;;
4674;SDS011;2351;50.812;12.872;2023-03-03T08:03:56;42.43;;;17.17;;
4674;SDS011;2351;50.812;12.872;2023-03-03T08:06:38;44.27;;;15.73;;
4674;SDS011;2351;50.812;12.872;2023-03-03T08:18:01;35.43;;;14.57;;
4674;SDS011;2351;50.812;12.872;2023-03-03T08:20:47;36.30;;;14.53;;
4674;SDS011;2351;50.812;12.872;2023-03-03T08:23:21;41.83;;;15.33;;
4674;SDS011;2351;50.812;12.872;2023-03-03T08:25:53;38.33;;;13.47;;
4674;SDS011;2351;50.812;12.872;2023-03-03T08:28:25;37.50;;;15.53;;
4674;SDS011;2351;50.812;12.872;2023-03-03T08:30:57;46.27;;;19.53;;
4674;SDS011;2351;50.812;12.872;2023-03-03T08:33:28;38.33;;;16.37;;
4674;SDS011;2351;50.812;12.872;2023-03-03T08:36:00;38.77;;;14.13;;
4674;SDS011;2351;50.812;12.872;2023-03-03T08:38:33;45.97;;;15.23;;
4674;SDS011;2351;50.812;12.872;2023-03-03T08:41:05;37.77;;;13.90;;
4674;SDS011;2351;50.812;12.872;2023-03-03T08:43:37;38.50;;;15.97;;
4674;SDS011;2351;50.812;12.872;2023-03-03T08:46:09;28.40;;;13.33;;
4674;SDS011;2351;50.812;12.872;2023-03-03T08:48:41;51.27;;;15.80;;
4674;SDS011;2351;50.812;12.872;2023-03-03T08:51:12;31.30;;;12.90;;
4674;SDS011;2351;50.812;12.872;2023-03-03T08:53:45;26.87;;;13.33;;
4674;SDS011;2351;50.812;12.872;2023-03-03T08:56:17;39.77;;;13.90;;
4674;SDS011;2351;50.812;12.872;2023-03-03T08:58:49;40.57;;;13.80;;
4674;SDS011;2351;50.812;12.872;2023-03-03T09:01:20;31.33;;;13.23;;
4674;SDS011;2351;50.812;12.872;2023-03-03T09:03:52;29.63;;;13.20;;
4674;SDS011;2351;50.812;12.872;2023-03-03T09:06:24;36.90;;;14.00;;
4674;SDS011;2351;50.812;12.872;2023-03-03T09:08:57;56.13;;;14.77;;
4674;SDS011;2351;50.812;12.872;2023-03-03T09:11:29;35.10;;;12.70;;
4674;SDS011;2351;50.812;12.872;2023-03-03T09:14:05;45.73;;;14.43;;
4674;SDS011;2351;50.812;12.872;2023-03-03T09:16:41;48.23;;;14.77;;
4674;SDS011;2351;50.812;12.872;2023-03-03T09:19:20;44.33;;;18.07;;
4674;SDS011;2351;50.812;12.872;2023-03-03T09:21:55;39.73;;;13.00;;
4674;SDS011;2351;50.812;12.872;2023-03-03T09:24:30;44.07;;;14.90;;
4674;SDS011;2351;50.812;12.872;2023-03-03T09:27:11;46.77;;;16.20;;
4674;SDS011;2351;50.812;12.872;2023-03-03T09:29:48;61.23;;;16.70;;
4674;SDS011;2351;50.812;12.872;2023-03-03T09:32:23;41.87;;;15.40;;
4674;SDS011;2351;50.812;12.872;2023-03-03T09:37:59;38.77;;;13.10;;
4674;SDS011;2351;50.812;12.872;2023-03-03T09:40:43;27.60;;;11.30;;
4674;SDS011;2351;50.812;12.872;2023-03-03T09:43:26;36.87;;;12.37;;
4674;SDS011;2351;50.812;12.872;2023-03-03T09:46:07;36.40;;;12.80;;
4674;SDS011;2351;50.812;12.872;2023-03-03T09:48:48;32.37;;;12.00;;
4674;SDS011;2351;50.812;12.872;2023-03-03T09:51:41;30.93;;;12.57;;
4674;SDS011;2351;50.812;12.872;2023-03-03T09:57:31;38.57;;;12.50;;
4674;SDS011;2351;50.812;12.872;2023-03-03T10:00:17;31.60;;;11.07;;
4674;SDS011;2351;50.812;12.872;2023-03-03T10:03:02;30.23;;;10.70;;
4674;SDS011;2351;50.812;12.872;2023-03-03T10:05:51;25.27;;;8.60;;
4674;SDS011;2351;50.812;12.872;2023-03-03T10:08:36;25.53;;;11.20;;
4674;SDS011;2351;50.812;12.872;2023-03-03T10:11:27;20.93;;;8.90;;
4674;SDS011;2351;50.812;12.872;2023-03-03T10:14:12;31.80;;;11.83;;
4674;SDS011;2351;50.812;12.872;2023-03-03T10:17:01;32.87;;;12.40;;
4674;SDS011;2351;50.812;12.872;2023-03-03T10:19:40;29.60;;;10.17;;
4674;SDS011;2351;50.812;12.872;2023-03-03T10:22:25;28.90;;;12.07;;
4674;SDS011;2351;50.812;12.872;2023-03-03T10:25:09;38.60;;;12.03;;
4674;SDS011;2351;50.812;12.872;2023-03-03T10:27:50;32.80;;;10.13;;
4674;SDS011;2351;50.812;12.872;2023-03-03T10:30:37;23.33;;;8.53;;
4674;SDS011;2351;50.812;12.872;2023-03-03T10:33:18;20.83;;;7.07;;
4674;SDS011;2351;50.812;12.872;2023-03-03T10:36:05;35.83;;;9.30;;
4674;SDS011;2351;50.812;12.872;2023-03-03T10:38:58;29.97;;;9.27;;
4674;SDS011;2351;50.812;12.872;2023-03-03T10:41:47;29.53;;;8.87;;
4674;SDS011;2351;50.812;12.872;2023-03-03T10:44:46;29.73;;;9.77;;
4674;SDS011;2351;50.812;12.872;2023-03-03T10:47:29;19.07;;;8.43;;
4674;SDS011;2351;50.812;12.872;2023-03-03T10:50:12;24.00;;;7.30;;
4674;SDS011;2351;50.812;12.872;2023-03-03T10:52:51;12.70;;;5.67;;
4674;SDS011;2351;50.812;12.872;2023-03-03T10:55:34;15.63;;;7.00;;
4674;SDS011;2351;50.812;12.872;2023-03-03T10:58:15;16.07;;;7.27;;
4674;SDS011;2351;50.812;12.872;2023-03-03T11:01:11;17.10;;;7.43;;
4674;SDS011;2351;50.812;12.872;2023-03-03T11:04:11;15.77;;;6.60;;
4674;SDS011;2351;50.812;12.872;2023-03-03T11:06:57;20.40;;;7.10;;
4674;SDS011;2351;50.812;12.872;2023-03-03T11:09:37;13.40;;;6.03;;
4674;SDS011;2351;50.812;12.872;2023-03-03T11:12:24;14.67;;;5.70;;
4674;SDS011;2351;50.812;12.872;2023-03-03T11:15:05;15.60;;;5.60;;
4674;SDS011;2351;50.812;12.872;2023-03-03T11:17:55;10.90;;;5.83;;
4674;SDS011;2351;50.812;12.872;2023-03-03T11:20:40;15.70;;;4.20;;
4674;SDS011;2351;50.812;12.872;2023-03-03T11:23:21;12.17;;;5.13;;
4674;SDS011;2351;50.812;12.872;2023-03-03T11:26:11;12.43;;;5.10;;
4674;SDS011;2351;50.812;12.872;2023-03-03T11:28:55;12.40;;;4.70;;
4674;SDS011;2351;50.812;12.872;2023-03-03T11:31:42;16.00;;;5.63;;
4674;SDS011;2351;50.812;12.872;2023-03-03T11:34:22;17.70;;;5.40;;
4674;SDS011;2351;50.812;12.872;2023-03-03T11:37:10;13.13;;;4.73;;
4674;SDS011;2351;50.812;12.872;2023-03-03T11:39:46;12.20;;;3.97;;
4674;SDS011;2351;50.812;12.872;2023-03-03T11:42:21;9.90;;;5.20;;
4674;SDS011;2351;50.812;12.872;2023-03-03T11:44:59;17.00;;;5.70;;
4674;SDS011;2351;50.812;12.872;2023-03-03T11:47:33;12.90;;;6.07;;
4674;SDS011;2351;50.812;12.872;2023-03-03T11:50:14;9.93;;;4.40;;
4674;SDS011;2351;50.812;12.872;2023-03-03T11:52:54;12.80;;;5.10;;
4674;SDS011;2351;50.812;12.872;2023-03-03T11:55:35;8.80;;;4.60;;
4674;SDS011;2351;50.812;12.872;2023-03-03T11:58:11;10.30;;;5.30;;
4674;SDS011;2351;50.812;12.872;2023-03-03T12:00:50;16.20;;;5.07;;
4674;SDS011;2351;50.812;12.872;2023-03-03T12:03:25;9.63;;;4.93;;
4674;SDS011;2351;50.812;12.872;2023-03-03T12:06:11;9.33;;;4.20;;
4674;SDS011;2351;50.812;12.872;2023-03-03T12:08:56;10.30;;;4.90;;
4674;SDS011;2351;50.812;12.872;2023-03-03T12:11:38;19.23;;;5.87;;
4674;SDS011;2351;50.812;12.872;2023-03-03T12:14:31;14.63;;;6.57;;
4674;SDS011;2351;50.812;12.872;2023-03-03T12:17:26;16.13;;;4.87;;
4674;SDS011;2351;50.812;12.872;2023-03-03T12:20:12;17.97;;;5.90;;
4674;SDS011;2351;50.812;12.872;2023-03-03T12:22:51;11.83;;;5.40;;
4674;SDS011;2351;50.812;12.872;2023-03-03T12:25:34;11.90;;;5.27;;
4674;SDS011;2351;50.812;12.872;2023-03-03T12:28:10;8.93;;;5.10;;
4674;SDS011;2351;50.812;12.872;2023-03-03T12:30:53;17.17;;;4.93;;
4674;SDS011;2351;50.812;12.872;2023-03-03T12:33:47;12.43;;;5.30;;
4674;SDS011;2351;50.812;12.872;2023-03-03T12:36:31;16.30;;;6.90;;
4674;SDS011;2351;50.812;12.872;2023-03-03T12:39:27;15.93;;;5.33;;
4674;SDS011;2351;50.812;12.872;2023-03-03T12:42:11;13.87;;;5.40;;
4674;SDS011;2351;50.812;12.872;2023-03-03T12:44:50;19.77;;;5.60;;
4674;SDS011;2351;50.812;12.872;2023-03-03T12:47:32;12.33;;;5.60;;
4674;SDS011;2351;50.812;12.872;2023-03-03T12:50:13;11.27;;;5.13;;
4674;SDS011;2351;50.812;12.872;2023-03-03T12:53:04;15.60;;;6.00;;
4674;SDS011;2351;50.812;12.872;2023-03-03T12:55:45;13.17;;;5.30;;
4674;SDS011;2351;50.812;12.872;2023-03-03T12:58:27;18.87;;;6.00;;
4674;SDS011;2351;50.812;12.872;2023-03-03T13:01:10;15.40;;;6.90;;
4674;SDS011;2351;50.812;12.872;2023-03-03T13:03:55;12.47;;;5.73;;
4674;SDS011;2351;50.812;12.872;2023-03-03T13:06:34;15.73;;;6.53;;
4674;SDS011;2351;50.812;12.872;2023-03-03T13:12:11;12.03;;;5.47;;
4674;SDS011;2351;50.812;12.872;2023-03-03T13:14:56;14.50;;;5.23;;
4674;SDS011;2351;50.812;12.872;2023-03-03T13:17:35;10.37;;;5.60;;
4674;SDS011;2351;50.812;12.872;2023-03-03T13:20:11;18.17;;;6.83;;
4674;SDS011;2351;50.812;12.872;2023-03-03T13:22:53;17.30;;;7.07;;
4674;SDS011;2351;50.812;12.872;2023-03-03T13:25:34;16.07;;;7.37;;
4674;SDS011;2351;50.812;12.872;2023-03-03T13:28:17;18.30;;;7.30;;
4674;SDS011;2351;50.812;12.872;2023-03-03T13:30:57;20.33;;;8.00;;
4674;SDS011;2351;50.812;12.872;2023-03-03T13:33:33;17.93;;;7.20;;
4674;SDS011;2351;50.812;12.872;2023-03-03T13:36:07;18.43;;;8.03;;
4674;SDS011;2351;50.812;12.872;2023-03-03T13:38:42;22.00;;;7.17;;
4674;SDS011;2351;50.812;12.872;2023-03-03T13:41:20;18.30;;;7.27;;
4674;SDS011;2351;50.812;12.872;2023-03-03T13:43:56;26.20;;;8.50;;
4674;SDS011;2351;50.812;12.872;2023-03-03T13:46:35;23.93;;;8.83;;
4674;SDS011;2351;50.812;12.872;2023-03-03T13:49:15;17.00;;;6.80;;
4674;SDS011;2351;50.812;12.872;2023-03-03T13:51:59;24.43;;;8.60;;
4674;SDS011;2351;50.812;12.872;2023-03-03T13:54:43;18.33;;;8.07;;
4674;SDS011;2351;50.812;12.872;2023-03-03T13:57:29;21.13;;;8.93;;
4674;SDS011;2351;50.812;12.872;2023-03-03T14:00:15;22.60;;;8.93;;
4674;SDS011;2351;50.812;12.872;2023-03-03T14:06:13;19.90;;;7.90;;
4674;SDS011;2351;50.812;12.872;2023-03-03T14:08:50;21.20;;;8.30;;
4674;SDS011;2351;50.812;12.872;2023-03-03T14:11:38;26.27;;;10.67;;
4674;SDS011;2351;50.812;12.872;2023-03-03T14:14:22;39.17;;;11.90;;
4674;SDS011;2351;50.812;12.872;2023-03-03T14:17:06;31.67;;;9.93;;
4674;SDS011;2351;50.812;12.872;2023-03-03T14:19:45;34.93;;;11.77;;
4674;SDS011;2351;50.812;12.872;2023-03-03T14:22:20;27.40;;;11.43;;
4674;SDS011;2351;50.812;12.872;2023-03-03T14:25:00;40.23;;;11.50;;
4674;SDS011;2351;50.812;12.872;2023-03-03T14:27:36;48.70;;;15.73;;
4674;SDS011;2351;50.812;12.872;2023-03-03T14:30:23;32.50;;;11.50;;
4674;SDS011;2351;50.812;12.872;2023-03-03T14:32:58;31.17;;;12.17;;
4674;SDS011;2351;50.812;12.872;2023-03-03T14:35:33;28.90;;;11.60;;
4674;SDS011;2351;50.812;12.872;2023-03-03T14:38:08;40.17;;;12.50;;
4674;SDS011;2351;50.812;12.872;2023-03-03T14:40:43;47.20;;;13.83;;
4674;SDS011;2351;50.812;12.872;2023-03-03T14:43:22;31.00;;;11.37;;
4674;SDS011;2351;50.812;12.872;2023-03-03T14:45:54;29.23;;;11.40;;
4674;SDS011;2351;50.812;12.872;2023-03-03T14:48:26;33.27;;;11.73;;
4674;SDS011;2351;50.812;12.872;2023-03-03T14:51:14;40.63;;;12.37;;
4674;SDS011;2351;50.812;12.872;2023-03-03T14:54:05;38.87;;;12.70;;
4674;SDS011;2351;50.812;12.872;2023-03-03T14:56:57;32.07;;;12.57;;
4674;SDS011;2351;50.812;12.872;2023-03-03T14:59:30;27.97;;;11.20;;
4674;SDS011;2351;50.812;12.872;2023-03-03T15:02:19;44.30;;;12.63;;
4674;SDS011;2351;50.812;12.872;2023-03-03T15:05:15;38.07;;;12.47;;
4674;SDS011;2351;50.812;12.872;2023-03-03T15:07:54;35.87;;;12.13;;
4674;SDS011;2351;50.812;12.872;2023-03-03T15:10:38;27.20;;;9.70;;
4674;SDS011;2351;50.812;12.872;2023-03-03T15:13:23;34.27;;;10.77;;
4674;SDS011;2351;50.812;12.872;2023-03-03T15:16:04;25.47;;;11.07;;
4674;SDS011;2351;50.812;12.872;2023-03-03T15:18:57;30.50;;;12.40;;
4674;SDS011;2351;50.812;12.872;2023-03-03T15:21:50;32.73;;;11.97;;
4674;SDS011;2351;50.812;12.872;2023-03-03T15:24:36;42.63;;;13.10;;
4674;SDS011;2351;50.812;12.872;2023-03-03T15:27:12;42.93;;;13.47;;
4674;SDS011;2351;50.812;12.872;2023-03-03T15:29:57;24.70;;;10.63;;
4674;SDS011;2351;50.812;12.872;2023-03-03T15:32:37;28.10;;;9.57;;
4674;SDS011;2351;50.812;12.872;2023-03-03T15:35:23;32.40;;;11.10;;
4674;SDS011;2351;50.812;12.872;2023-03-03T15:38:02;36.67;;;11.70;;
4674;SDS011;2351;50.812;12.872;2023-03-03T15:40:42;30.63;;;11.33;;
4674;SDS011;2351;50.812;12.872;2023-03-03T15:43:20;28.70;;;10.40;;
4674;SDS011;2351;50.812;12.872;2023-03-03T15:45:59;30.23;;;11.63;;
4674;SDS011;2351;50.812;12.872;2023-03-03T15:48:49;40.13;;;11.73;;
4674;SDS011;2351;50.812;12.872;2023-03-03T15:51:35;32.70;;;11.50;;
4674;SDS011;2351;50.812;12.872;2023-03-03T15:54:27;24.57;;;10.47;;
4674;SDS011;2351;50.812;12.872;2023-03-03T15:57:12;28.67;;;12.40;;
4674;SDS011;2351;50.812;12.872;2023-03-03T15:59:58;47.23;;;19.17;;
4674;SDS011;2351;50.812;12.872;2023-03-03T16:02:48;39.03;;;16.20;;
4674;SDS011;2351;50.812;12.872;2023-03-03T16:05:24;43.30;;;12.77;;
4674;SDS011;2351;50.812;12.872;2023-03-03T16:08:00;39.67;;;13.83;;